Time;durP1;ratioP1;P1;durP2;ratioP2;P2;SDS_P1;SDS_P2;PMS_P1;PMS_P2;Temp;Humidity;BMP_temperature;BMP_pressure;BME280_temperature;BME280_humidity;BME280_pressure;Samples;Min_cycle;Max_cycle;Signal;HPM_P1;HPM_P2
2022/12/05 00:00:15;;;;;;;17.35;11.77;;;;;;;7.21;87.95;98642.00;5092101;28;20020;-48
2022/12/05 00:02:41;;;;;;;15.48;11.60;;;;;;;7.28;88.51;98637.66;5092208;28;20459;-48
2022/12/05 00:05:08;;;;;;;17.05;12.18;;;;;;;7.37;88.76;98633.19;5092008;28;20469;-48
2022/12/05 00:07:34;;;;;;;16.23;12.18;;;;;;;7.24;88.00;98631.19;5092093;28;20406;-48
2022/12/05 00:10:00;;;;;;;14.82;11.35;;;;;;;7.07;88.41;98629.75;5090719;28;20501;-48
2022/12/05 00:12:25;;;;;;;15.75;11.65;;;;;;;6.98;88.25;98629.84;5090727;28;20054;-48
2022/12/05 00:14:51;;;;;;;13.75;10.35;;;;;;;6.86;87.02;98623.44;5090790;28;20390;-48
2022/12/05 00:17:16;;;;;;;16.13;11.77;;;;;;;6.79;87.57;98628.53;5090579;28;20024;-48
2022/12/05 00:19:42;;;;;;;16.85;13.02;;;;;;;6.66;88.46;98622.31;5091859;28;20425;-48
2022/12/05 00:22:07;;;;;;;18.73;14.65;;;;;;;6.50;87.72;98626.69;5090611;28;20024;-48
2022/12/05 00:24:33;;;;;;;15.10;11.55;;;;;;;6.37;88.42;98626.47;5091871;28;20103;-48
2022/12/05 00:26:58;;;;;;;19.77;12.70;;;;;;;6.42;89.27;98631.97;5091835;28;20024;-48
2022/12/05 00:29:24;;;;;;;15.23;11.63;;;;;;;6.63;89.70;98633.09;5091783;28;20020;-48
2022/12/05 00:31:50;;;;;;;15.20;11.40;;;;;;;6.67;89.14;98634.38;5090464;28;20017;-48
2022/12/05 00:34:16;;;;;;;15.38;11.57;;;;;;;6.51;88.13;98640.53;5090524;28;20036;-48
2022/12/05 00:36:41;;;;;;;15.63;13.18;;;;;;;6.34;88.22;98642.47;5091829;28;20109;-48
2022/12/05 00:39:10;;;;;;;15.23;11.23;;;;;;;6.17;88.27;98634.72;5090484;28;20116;-48
2022/12/05 00:41:36;;;;;;;16.52;11.88;;;;;;;5.97;88.66;98638.78;5107335;28;20028;-48
2022/12/05 00:44:04;;;;;;;18.60;12.48;;;;;;;5.75;88.98;98638.50;5090356;28;20511;-48
2022/12/05 00:46:31;;;;;;;17.73;12.80;;;;;;;5.65;89.92;98640.53;5074407;28;20077;-48
2022/12/05 00:48:58;;;;;;;19.23;13.30;;;;;;;5.73;90.57;98634.47;5094504;28;20020;-48
2022/12/05 00:51:28;;;;;;;16.38;13.30;;;;;;;5.76;90.77;98634.94;5094425;28;20162;-48
2022/12/05 00:53:54;;;;;;;15.43;13.23;;;;;;;5.78;90.25;98640.00;5094402;28;20020;-48
2022/12/05 00:56:23;;;;;;;13.35;11.15;;;;;;;5.75;90.46;98643.72;5095740;28;20379;-49
2022/12/05 00:58:51;;;;;;;14.15;10.55;;;;;;;5.71;88.66;98654.66;5095638;28;20028;-48
2022/12/05 01:01:23;;;;;;;15.38;10.43;;;;;;;5.76;89.73;98647.16;5094214;28;20162;-49
2022/12/05 01:03:52;;;;;;;13.65;11.55;;;;;;;6.03;90.06;98638.09;5095498;28;20035;-48
2022/12/05 01:06:18;;;;;;;16.40;13.15;;;;;;;6.03;88.65;98648.50;5077208;28;20020;-48
2022/12/05 01:08:44;;;;;;;16.58;13.50;;;;;;;5.84;88.07;98648.91;5094156;28;20031;-49
2022/12/05 01:11:10;;;;;;;15.80;13.10;;;;;;;5.65;88.47;98640.53;5095274;28;20024;-48
2022/12/05 01:13:36;;;;;;;17.27;12.57;;;;;;;5.68;89.54;98644.59;5094016;28;20035;-49
2022/12/05 01:16:02;;;;;;;19.05;13.55;;;;;;;5.58;88.94;98650.00;5095303;28;20028;-49
2022/12/05 01:18:28;;;;;;;17.02;13.68;;;;;;;5.45;89.05;98645.31;5094995;28;20044;-49
2022/12/05 01:20:54;;;;;;;18.85;13.77;;;;;;;5.30;89.75;98658.22;5093859;28;20073;-48
2022/12/05 01:23:20;;;;;;;19.17;12.70;;;;;;;5.20;90.55;98663.59;5095168;28;20027;-49
2022/12/05 01:25:48;;;;;;;14.30;11.85;;;;;;;5.11;90.17;98656.81;5095106;28;20529;-49
2022/12/05 01:28:15;;;;;;;16.30;12.52;;;;;;;5.09;91.29;98650.97;5093830;28;20032;-48
2022/12/05 01:30:46;;;;;;;19.25;12.30;;;;;;;5.12;90.70;98661.03;5093783;28;20468;-48
2022/12/05 01:33:12;;;;;;;17.48;14.43;;;;;;;5.02;90.68;98659.59;5095005;28;20036;-48
2022/12/05 01:35:39;;;;;;;19.92;13.80;;;;;;;4.83;90.19;98656.38;5093646;28;20402;-48
2022/12/05 01:38:05;;;;;;;16.50;14.60;;;;;;;4.76;90.62;98663.19;5093564;28;20470;-48
2022/12/05 01:40:32;;;;;;;16.73;13.13;;;;;;;4.71;91.17;98662.84;5094845;28;20019;-48
2022/12/05 01:42:58;;;;;;;22.10;13.13;;;;;;;4.73;91.52;98661.75;5094769;28;20055;-48
2022/12/05 01:45:39;;;;;;;21.63;11.07;;;;;;;5.00;92.27;98664.97;5094621;28;20059;-48
2022/12/05 01:48:12;;;;;;;21.45;14.23;;;;;;;5.15;92.11;98665.91;5077212;28;20036;-48
2022/12/05 01:50:38;;;;;;;21.90;13.48;;;;;;;5.08;90.82;98672.75;5093358;28;20032;-48
2022/12/05 01:53:04;;;;;;;15.98;12.73;;;;;;;5.13;91.47;98664.44;5093252;28;20370;-48
2022/12/05 01:55:31;;;;;;;24.75;11.88;;;;;;;5.18;91.79;98667.38;5094800;28;20024;-48
2022/12/05 01:57:57;;;;;;;12.40;10.20;;;;;;;5.24;91.34;98671.91;5093854;28;20154;-48
2022/12/05 02:00:23;;;;;;;16.83;10.65;;;;;;;5.42;90.73;98674.28;5094342;28;20024;-48
2022/12/05 02:02:56;;;;;;;25.45;9.52;;;;;;;5.63;90.94;98670.31;5094423;28;20032;-48
2022/12/05 02:05:33;;;;;;;15.15;8.50;;;;;;;5.98;90.57;98671.66;5094233;28;20021;-48
2022/12/05 02:08:02;;;;;;;20.13;10.00;;;;;;;6.32;90.85;98670.50;5094401;28;20032;-48
2022/12/05 02:10:39;;;;;;;33.85;11.25;;;;;;;6.57;89.04;98679.75;5094265;28;20069;-48
2022/12/05 02:13:42;;;;;;;109.00;13.07;;;;;;;6.79;88.33;98677.28;5094238;28;20161;-48
2022/12/05 02:16:36;;;;;;;52.65;12.00;;;;;;;6.70;87.66;98678.34;5092754;28;20073;-48
2022/12/05 02:19:37;;;;;;;58.33;16.75;;;;;;;6.58;87.67;98685.78;5092013;28;20054;-49
2022/12/05 02:22:28;;;;;;;23.40;17.67;;;;;;;6.60;87.88;98682.00;5094052;28;20054;-48
2022/12/05 02:25:24;;;;;;;35.13;25.38;;;;;;;6.65;87.24;98686.69;5093959;28;20070;-48
2022/12/05 02:27:58;;;;;;;41.30;13.52;;;;;;;6.65;87.18;98685.88;5093994;28;20027;-48
2022/12/05 02:30:25;;;;;;;36.10;13.27;;;;;;;6.58;86.03;98688.41;5092610;28;20044;-48
2022/12/05 02:32:54;;;;;;;27.60;11.27;;;;;;;6.52;85.32;98686.47;5093861;28;20445;-48
2022/12/05 02:35:32;;;;;;;20.90;11.60;;;;;;;6.46;85.41;98687.16;5092420;28;20067;-48
2022/12/05 02:38:15;;;;;;;30.52;11.25;;;;;;;6.43;84.41;98682.31;5076552;28;20119;-48
2022/12/05 02:40:51;;;;;;;83.50;14.18;;;;;;;6.27;82.49;98688.44;5092416;28;20413;-48
2022/12/05 02:43:30;;;;;;;26.48;9.65;;;;;;;6.00;80.77;98691.34;5093672;28;20028;-48
2022/12/05 02:45:59;;;;;;;133.80;15.45;;;;;;;5.76;81.56;98692.22;5092292;28;20410;-48
2022/12/05 02:48:27;;;;;;;71.47;18.80;;;;;;;5.67;82.77;98690.63;5092242;28;20025;-48
2022/12/05 02:50:56;;;;;;;43.70;18.63;;;;;;;5.70;83.77;98695.50;5093393;28;20038;-49
2022/12/05 02:53:24;;;;;;;42.47;36.45;;;;;;;5.94;85.26;98696.41;5092204;28;20043;-48
2022/12/05 02:55:50;;;;;;;100.43;31.17;;;;;;;6.06;83.75;98696.88;5092021;28;20024;-48
2022/12/05 02:58:22;;;;;;;77.50;18.73;;;;;;;6.15;84.42;98699.22;5093316;28;20027;-48
2022/12/05 03:00:52;;;;;;;27.33;17.40;;;;;;;6.17;84.91;98694.66;5093290;28;20157;-48
2022/12/05 03:03:21;;;;;;;139.18;16.27;;;;;;;6.28;85.42;98703.06;5091933;28;20395;-48
2022/12/05 03:06:00;;;;;;;32.80;15.45;;;;;;;6.32;85.32;98705.19;5091739;28;20031;-49
2022/12/05 03:08:31;;;;;;;96.20;15.48;;;;;;;6.27;84.31;98707.47;5093223;28;20027;-49
2022/12/05 03:10:59;;;;;;;76.80;15.55;;;;;;;6.17;83.75;98706.88;5090728;28;20039;-48
2022/12/05 03:13:35;;;;;;;88.90;14.93;;;;;;;6.08;83.75;98705.31;5093041;28;20048;-48
2022/12/05 03:16:07;;;;;;;93.90;14.23;;;;;;;6.01;83.67;98702.56;5093011;28;20067;-48
2022/12/05 03:18:42;;;;;;;42.33;15.35;;;;;;;5.93;83.74;98705.19;5091386;28;20418;-48
2022/12/05 03:21:25;;;;;;;63.83;13.70;;;;;;;5.96;84.72;98716.09;5091658;28;20118;-48
2022/12/05 03:23:56;;;;;;;69.03;13.40;;;;;;;5.92;84.20;98719.19;5092777;28;20487;-48
2022/12/05 03:27:06;;;;;;;121.50;14.93;;;;;;;5.79;83.94;98720.56;5092843;28;20193;-48
2022/12/05 03:29:56;;;;;;;58.20;13.73;;;;;;;5.39;84.40;98717.09;5010504;28;20032;-48
2022/12/05 03:32:43;;;;;;;47.60;12.88;;;;;;;5.25;85.14;98716.94;5010600;28;20038;-48
2022/12/05 03:35:43;;;;;;;46.33;12.07;;;;;;;5.08;85.74;98718.75;5010476;28;20437;-48
2022/12/05 03:38:13;;;;;;;21.63;11.90;;;;;;;5.11;85.13;98724.44;4979464;28;20609;-48
2022/12/05 03:40:46;;;;;;;27.63;12.02;;;;;;;5.18;85.21;98722.00;5010336;28;20041;-48
2022/12/05 03:43:33;;;;;;;31.77;12.35;;;;;;;5.33;86.29;98720.34;5010516;28;20037;-48
2022/12/05 03:46:08;;;;;;;32.13;13.57;;;;;;;5.45;86.08;98730.41;5010469;28;20093;-48
2022/12/05 03:48:36;;;;;;;26.08;12.32;;;;;;;5.43;85.93;98729.75;5010281;28;20033;-48
2022/12/05 03:51:05;;;;;;;23.27;12.07;;;;;;;5.73;87.39;98730.81;5010312;28;20038;-49
2022/12/05 03:53:39;;;;;;;86.88;12.68;;;;;;;6.02;86.66;98734.63;4993748;28;20057;-49
2022/12/05 03:56:09;;;;;;;53.95;12.70;;;;;;;6.09;86.47;98736.38;5010124;28;20030;-49
2022/12/05 03:58:42;;;;;;;96.95;12.52;;;;;;;6.20;85.96;98743.84;5010270;28;20037;-48
2022/12/05 04:01:10;;;;;;;52.67;13.25;;;;;;;6.26;85.66;98741.53;5080547;28;20052;-48
2022/12/05 04:03:43;;;;;;;18.98;13.32;;;;;;;6.26;85.68;98741.53;5092193;28;20016;-48
2022/12/05 04:06:22;;;;;;;28.73;12.75;;;;;;;6.34;84.89;98744.91;5092055;28;20038;-48
2022/12/05 04:09:00;;;;;;;22.00;12.98;;;;;;;6.48;85.15;98747.75;5092088;28;20110;-48
2022/12/05 04:11:31;;;;;;;20.60;11.57;;;;;;;6.64;85.36;98739.84;5092360;28;20123;-48
2022/12/05 04:14:05;;;;;;;20.13;12.60;;;;;;;6.76;83.77;98743.66;5092078;28;20070;-48
2022/12/05 04:19:23;;;;;;;38.13;12.40;;;;;;;6.83;83.89;98749.00;5091900;28;20062;-48
2022/12/05 04:21:52;;;;;;;39.40;12.25;;;;;;;6.81;83.00;98753.56;5091577;28;20027;-48
2022/12/05 04:27:35;;;;;;;55.88;13.60;;;;;;;6.46;81.36;98754.94;5092185;28;20043;-48
2022/12/05 04:30:06;;;;;;;31.60;11.98;;;;;;;6.33;81.01;98760.72;5091853;28;20512;-48
2022/12/05 04:32:41;;;;;;;25.20;13.77;;;;;;;6.33;82.33;98752.91;5090629;28;20035;-48
2022/12/05 04:35:30;;;;;;;18.00;12.20;;;;;;;6.38;82.60;98763.63;5092137;28;20366;-48
2022/12/05 04:38:36;;;;;;;50.33;13.98;;;;;;;6.41;82.01;98760.66;5090078;28;20574;-48
2022/12/05 04:41:06;;;;;;;25.88;13.15;;;;;;;6.49;81.86;98755.41;5091605;28;20418;-48
2022/12/05 04:43:37;;;;;;;25.98;12.95;;;;;;;6.67;82.46;98769.97;5090408;28;20023;-48
2022/12/05 04:46:08;;;;;;;18.30;12.45;;;;;;;6.72;81.85;98765.03;5091786;28;20510;-48
2022/12/05 04:48:37;;;;;;;17.13;12.48;;;;;;;6.70;81.58;98765.22;5091811;28;20032;-49
2022/12/05 04:51:06;;;;;;;24.15;19.52;;;;;;;6.46;81.33;98775.78;5090381;28;20034;-49
2022/12/05 04:53:33;;;;;;;21.38;16.75;;;;;;;6.22;81.73;98780.16;5091684;28;20012;-49
2022/12/05 04:56:01;;;;;;;17.98;12.00;;;;;;;6.31;82.29;98780.94;5090290;28;20039;-49
2022/12/05 04:58:29;;;;;;;15.82;12.52;;;;;;;6.46;82.91;98776.63;5091629;28;20103;-49
2022/12/05 05:01:13;;;;;;;16.67;12.27;;;;;;;6.46;81.62;98776.63;5091541;28;20051;-48
2022/12/05 05:03:47;;;;;;;18.60;12.52;;;;;;;6.56;80.62;98778.97;5090258;28;20036;-48
2022/12/05 05:06:13;;;;;;;22.95;13.23;;;;;;;6.48;79.74;98774.66;5091878;28;20421;-48
2022/12/05 05:08:48;;;;;;;20.48;12.63;;;;;;;6.38;79.88;98772.25;5091561;28;20028;-49
2022/12/05 05:11:18;;;;;;;20.77;13.35;;;;;;;6.27;79.74;98772.63;5091526;28;20111;-48
2022/12/05 05:13:43;;;;;;;18.13;12.52;;;;;;;6.12;81.13;98772.53;5091422;28;20099;-49
2022/12/05 05:16:24;;;;;;;17.65;13.18;;;;;;;6.19;81.55;98773.47;5090092;28;20158;-48
2022/12/05 05:18:50;;;;;;;17.75;12.50;;;;;;;6.25;82.14;98777.19;5090060;28;20063;-49
2022/12/05 05:21:28;;;;;;;24.38;12.15;;;;;;;6.41;82.94;98781.53;5091416;28;20016;-48
2022/12/05 05:23:54;;;;;;;17.50;12.85;;;;;;;6.68;83.46;98787.22;5091372;28;20064;-49
2022/12/05 05:26:21;;;;;;;17.42;11.95;;;;;;;6.76;82.55;98784.56;5091324;28;20024;-49
2022/12/05 05:28:47;;;;;;;17.38;12.68;;;;;;;6.81;83.22;98787.47;5090111;28;20024;-49
2022/12/05 05:31:15;;;;;;;21.67;12.30;;;;;;;6.86;82.69;98789.56;5089971;28;20520;-48
2022/12/05 05:33:41;;;;;;;13.52;11.32;;;;;;;6.89;82.80;98797.06;5092382;28;20559;-49
2022/12/05 05:36:09;;;;;;;19.52;12.80;;;;;;;6.84;82.39;98799.34;5094937;28;20020;-48
2022/12/05 05:38:40;;;;;;;24.23;12.73;;;;;;;7.00;82.80;98813.13;5093557;28;20038;-49
2022/12/05 05:41:15;;;;;;;21.48;12.57;;;;;;;7.14;82.75;98818.56;5094811;28;20017;-48
2022/12/05 05:43:41;;;;;;;32.80;13.05;;;;;;;7.27;82.42;98812.75;5094826;28;20091;-48
2022/12/05 05:46:08;;;;;;;27.23;14.27;;;;;;;7.34;81.37;98819.69;5094763;28;20024;-48
2022/12/05 05:48:33;;;;;;;24.35;12.95;;;;;;;7.34;80.72;98824.09;5093362;28;20397;-49
2022/12/05 05:51:00;;;;;;;20.75;12.50;;;;;;;7.43;80.92;98833.50;5059863;28;20026;-49
2022/12/05 05:53:27;;;;;;;21.05;13.27;;;;;;;7.51;79.89;98835.25;5093293;28;20107;-49
2022/12/05 05:55:53;;;;;;;23.17;14.27;;;;;;;7.44;79.09;98834.31;5094501;28;20032;-48
2022/12/05 05:58:18;;;;;;;21.73;13.25;;;;;;;7.34;78.01;98834.56;5094443;28;20035;-48
2022/12/05 06:00:44;;;;;;;23.02;14.32;;;;;;;7.22;78.17;98834.16;5094456;28;20020;-48
2022/12/05 06:03:10;;;;;;;26.13;14.25;;;;;;;7.11;78.63;98839.78;5094413;28;20103;-48
2022/12/05 06:05:35;;;;;;;25.30;14.25;;;;;;;7.11;78.88;98840.59;5094264;28;20016;-48
2022/12/05 06:08:01;;;;;;;25.20;14.48;;;;;;;7.19;79.59;98850.19;5094576;28;20028;-48
2022/12/05 06:10:28;;;;;;;27.52;14.75;;;;;;;7.23;79.41;98853.25;5094276;28;20024;-49
2022/12/05 06:12:54;;;;;;;21.83;15.60;;;;;;;7.15;79.98;98854.94;5093027;28;20104;-48
2022/12/05 06:15:23;;;;;;;25.05;15.43;;;;;;;7.18;79.98;98856.38;5094233;28;20016;-48
2022/12/05 06:17:49;;;;;;;33.17;15.75;;;;;;;7.19;79.80;98852.78;5093940;28;20059;-49
2022/12/05 06:20:14;;;;;;;30.33;15.20;;;;;;;7.06;79.25;98852.53;5094107;28;20081;-49
2022/12/05 06:22:40;;;;;;;26.55;15.43;;;;;;;6.88;77.92;98858.88;5092703;28;20162;-49
2022/12/05 06:25:06;;;;;;;20.27;14.07;;;;;;;6.75;77.50;98864.63;5092620;28;20028;-48
2022/12/05 06:27:32;;;;;;;20.00;14.40;;;;;;;6.69;77.85;98862.69;5092626;28;20031;-49
2022/12/05 06:29:58;;;;;;;23.33;13.40;;;;;;;6.73;78.52;98874.41;5092639;28;20024;-49
2022/12/05 06:32:24;;;;;;;18.85;15.02;;;;;;;6.72;78.76;98874.56;5093875;28;20095;-49
2022/12/05 06:34:50;;;;;;;17.25;13.93;;;;;;;6.64;78.91;98882.44;5093817;28;20024;-49
2022/12/05 06:37:15;;;;;;;23.52;14.07;;;;;;;6.59;78.48;98882.97;5092444;28;20012;-49
2022/12/05 06:39:41;;;;;;;23.55;14.48;;;;;;;6.55;78.86;98892.91;5093778;28;20401;-48
2022/12/05 06:42:07;;;;;;;27.40;15.10;;;;;;;6.55;78.91;98899.94;5092296;28;20032;-49
2022/12/05 06:44:32;;;;;;;18.40;12.32;;;;;;;6.58;79.71;98897.81;5093627;28;20122;-49
2022/12/05 06:46:58;;;;;;;20.65;13.18;;;;;;;6.64;79.45;98896.31;5093512;28;20611;-49
2022/12/05 06:49:25;;;;;;;20.88;13.25;;;;;;;6.66;79.69;98896.13;5092142;28;20048;-49
2022/12/05 06:51:54;;;;;;;18.55;13.40;;;;;;;6.70;79.92;98895.63;5093445;28;20133;-49
2022/12/05 06:54:20;;;;;;;20.45;12.93;;;;;;;6.76;79.46;98896.72;5093354;28;20112;-49
2022/12/05 06:56:45;;;;;;;16.60;13.00;;;;;;;6.69;79.36;98894.00;5093373;28;20125;-49
2022/12/05 06:59:11;;;;;;;19.25;12.63;;;;;;;6.73;79.48;98897.09;5092071;28;20185;-48
2022/12/05 07:01:40;;;;;;;15.00;11.85;;;;;;;6.70;78.81;98893.03;5091910;28;20438;-49
2022/12/05 07:04:14;;;;;;;15.52;11.93;;;;;;;6.63;78.78;98897.28;5093153;28;20031;-48
2022/12/05 07:06:42;;;;;;;16.27;12.85;;;;;;;6.42;78.25;98905.69;5093048;28;20016;-48
2022/12/05 07:09:08;;;;;;;18.35;13.10;;;;;;;6.16;79.50;98911.13;5091843;28;20399;-48
2022/12/05 07:11:34;;;;;;;22.35;14.70;;;;;;;6.18;81.11;98915.19;5091782;28;20016;-49
2022/12/05 07:14:00;;;;;;;25.00;12.90;;;;;;;6.36;81.10;98914.97;5091769;28;20111;-49
2022/12/05 07:16:26;;;;;;;122.20;109.25;;;;;;;6.46;81.44;98913.97;5091647;28;20016;-48
2022/12/05 07:18:52;;;;;;;24.63;16.77;;;;;;;6.55;80.83;98928.59;5092730;28;20051;-49
2022/12/05 07:21:19;;;;;;;42.80;19.08;;;;;;;6.54;80.44;98924.34;5092782;28;20035;-49
2022/12/05 07:23:45;;;;;;;26.80;14.00;;;;;;;6.72;80.97;98921.53;5092747;28;20047;-48
2022/12/05 07:26:14;;;;;;;21.73;13.82;;;;;;;6.90;80.55;98924.72;5091512;28;20025;-48
2022/12/05 07:28:40;;;;;;;17.85;12.75;;;;;;;6.94;80.88;98936.44;5091580;28;20085;-48
2022/12/05 07:31:09;;;;;;;22.02;13.95;;;;;;;7.03;80.54;98944.22;5074565;28;20024;-49
2022/12/05 07:33:35;;;;;;;27.15;14.88;;;;;;;7.00;80.24;98938.38;5092671;28;20051;-48
2022/12/05 07:36:08;;;;;;;21.48;14.55;;;;;;;7.15;80.85;98953.31;5074405;28;20028;-48
2022/12/05 07:38:34;;;;;;;19.95;14.52;;;;;;;7.41;80.44;98960.81;5092837;28;20024;-48
2022/12/05 07:41:04;;;;;;;17.98;13.65;;;;;;;7.37;79.77;98955.13;5092579;28;20107;-48
2022/12/05 07:43:30;;;;;;;28.30;15.90;;;;;;;7.30;79.75;98956.78;5092491;28;20059;-48
2022/12/05 07:46:00;;;;;;;23.10;14.43;;;;;;;7.36;80.65;98953.50;5091070;28;20059;-49
2022/12/05 07:48:26;;;;;;;23.33;15.45;;;;;;;7.60;80.43;98951.69;5091203;28;20077;-49
2022/12/05 07:50:52;;;;;;;26.35;14.93;;;;;;;7.87;80.44;98960.81;5090981;28;20402;-49
2022/12/05 07:53:18;;;;;;;27.77;15.90;;;;;;;8.13;80.17;98963.03;5092338;28;20024;-48
2022/12/05 07:55:43;;;;;;;22.38;14.55;;;;;;;8.24;79.37;98966.22;5092013;28;20046;-49
2022/12/05 07:58:09;;;;;;;39.28;19.58;;;;;;;8.30;78.36;98965.50;5090710;28;20070;-48
2022/12/05 08:00:35;;;;;;;36.97;19.40;;;;;;;8.32;78.14;98968.75;5092265;28;20028;-49
2022/12/05 08:03:02;;;;;;;29.40;17.77;;;;;;;8.30;78.29;98968.09;5092224;28;20031;-49
2022/12/05 08:05:27;;;;;;;41.33;18.27;;;;;;;8.26;78.48;98965.03;5090801;28;20125;-49
2022/12/05 08:07:53;;;;;;;39.83;17.30;;;;;;;8.18;78.19;98965.91;5090828;28;20038;-48
2022/12/05 08:10:19;;;;;;;52.38;20.23;;;;;;;8.12;78.14;98966.63;5092054;28;20085;-49
2022/12/05 08:12:44;;;;;;;28.88;18.63;;;;;;;7.98;77.06;98968.22;5090806;28;20017;-49
2022/12/05 08:15:10;;;;;;;32.30;18.05;;;;;;;7.92;77.49;98978.56;5091992;28;20030;-49
2022/12/05 08:17:36;;;;;;;32.15;18.35;;;;;;;7.91;77.72;98982.19;5092050;28;20100;-49
2022/12/05 08:20:01;;;;;;;32.00;18.42;;;;;;;7.92;77.51;98981.19;5090409;28;20044;-49
2022/12/05 08:22:27;;;;;;;164.00;22.13;;;;;;;7.92;77.45;98986.41;5090645;28;20555;-49
2022/12/05 08:24:53;;;;;;;36.55;18.05;;;;;;;7.93;77.52;98988.03;5073728;28;20515;-49
2022/12/05 08:27:18;;;;;;;25.85;15.88;;;;;;;7.88;75.66;98988.56;5091822;28;20065;-49
2022/12/05 08:29:44;;;;;;;20.25;15.38;;;;;;;7.66;72.58;98982.34;5090795;28;20032;-49
2022/12/05 08:32:10;;;;;;;19.50;15.13;;;;;;;7.35;73.04;98987.63;5091853;28;20103;-48
2022/12/05 08:34:36;;;;;;;24.42;16.48;;;;;;;7.11;74.83;98988.56;5090484;28;20558;-48
2022/12/05 08:37:01;;;;;;;28.15;17.38;;;;;;;7.24;77.04;99001.84;5090514;28;20028;-48
2022/12/05 08:39:27;;;;;;;54.40;18.85;;;;;;;7.78;77.59;99007.06;5091809;28;20482;-49
2022/12/05 08:41:52;;;;;;;36.35;19.50;;;;;;;8.12;76.57;99012.88;5090392;28;20036;-49
2022/12/05 08:44:18;;;;;;;27.52;17.73;;;;;;;8.45;76.87;99012.59;5090346;28;20093;-49
2022/12/05 08:46:47;;;;;;;30.77;18.80;;;;;;;8.65;76.31;99005.84;5091671;28;20595;-49
2022/12/05 08:49:13;;;;;;;22.63;17.80;;;;;;;8.81;76.42;99017.94;5090418;28;20048;-49
2022/12/05 08:51:40;;;;;;;37.22;18.00;;;;;;;9.04;75.44;99022.31;5090315;28;20059;-49
2022/12/05 08:54:07;;;;;;;53.67;18.98;;;;;;;9.14;74.91;99022.81;5090363;28;20028;-49
2022/12/05 08:56:33;;;;;;;29.05;17.15;;;;;;;9.05;74.41;99037.00;5090319;28;20127;-49
2022/12/05 08:59:01;;;;;;;34.80;17.92;;;;;;;8.93;74.93;99034.84;5091600;28;20482;-49
2022/12/05 09:01:30;;;;;;;34.50;17.23;;;;;;;8.92;74.70;99045.50;5091512;28;20482;-49
2022/12/05 09:03:57;;;;;;;120.60;17.15;;;;;;;8.86;74.61;99046.22;5091665;28;20441;-49
2022/12/05 09:06:24;;;;;;;26.80;15.25;;;;;;;8.67;74.59;99039.69;5091454;28;20493;-49
2022/12/05 09:08:56;;;;;;;26.75;16.10;;;;;;;8.60;74.90;99045.66;5092888;28;20486;-49
2022/12/05 09:11:25;;;;;;;95.82;16.17;;;;;;;8.63;75.07;99044.47;5094245;28;20051;-49
2022/12/05 09:13:52;;;;;;;51.13;29.83;;;;;;;8.57;75.15;99045.19;5094108;28;20052;-49
2022/12/05 09:16:22;;;;;;;35.22;15.05;;;;;;;8.57;74.70;99035.56;5095292;28;20024;-49
2022/12/05 09:18:49;;;;;;;23.48;14.30;;;;;;;8.52;75.25;99037.06;5095111;28;20085;-48
2022/12/05 09:21:20;;;;;;;89.55;15.40;;;;;;;8.54;74.89;99048.97;5095280;28;20022;-49
2022/12/05 09:23:47;;;;;;;27.90;13.90;;;;;;;8.56;75.20;99039.16;5095426;28;20079;-48
2022/12/05 09:26:15;;;;;;;15.98;13.23;;;;;;;8.73;75.39;99044.22;5093879;28;20012;-49
2022/12/05 09:28:42;;;;;;;28.35;14.48;;;;;;;8.95;75.07;99047.75;5093836;28;20024;-48
2022/12/05 09:31:14;;;;;;;22.50;14.10;;;;;;;9.08;73.90;99052.34;5093812;28;20412;-48
2022/12/05 09:33:40;;;;;;;18.25;13.63;;;;;;;9.15;74.03;99050.63;5095121;28;20056;-49
2022/12/05 09:36:11;;;;;;;34.47;15.18;;;;;;;9.19;73.42;99057.94;5093691;28;20050;-48
2022/12/05 09:38:37;;;;;;;21.38;14.68;;;;;;;9.33;73.52;99055.47;5094986;28;20056;-49
2022/12/05 09:41:12;;;;;;;20.52;13.93;;;;;;;9.31;72.82;99053.03;5094924;28;20422;-49
2022/12/05 09:44:01;;;;;;;21.23;14.57;;;;;;;9.39;72.86;99052.13;5094909;28;20031;-49
2022/12/05 09:47:01;;;;;;;21.20;13.88;;;;;;;9.64;72.64;99052.63;5094809;28;20509;-49
2022/12/05 09:49:29;;;;;;;21.40;15.27;;;;;;;9.79;71.70;99055.19;5085184;28;20040;-49
2022/12/05 09:51:57;;;;;;;28.73;15.55;;;;;;;9.71;71.63;99047.44;5094689;28;20093;-48
2022/12/05 09:54:23;;;;;;;20.45;14.88;;;;;;;9.43;70.54;99049.97;5094713;28;20043;-48
2022/12/05 09:56:52;;;;;;;20.77;13.40;;;;;;;9.21;71.09;99042.03;5093290;28;20028;-49
2022/12/05 09:59:19;;;;;;;29.05;14.35;;;;;;;9.06;69.92;99049.09;5094524;28;20059;-49
2022/12/05 10:02:02;;;;;;;23.27;15.07;;;;;;;9.50;72.05;99035.94;5093134;28;20024;-48
2022/12/05 10:04:32;;;;;;;15.48;12.80;;;;;;;10.33;69.68;99046.84;5094448;28;20020;-49
2022/12/05 10:07:16;;;;;;;15.93;13.60;;;;;;;10.33;68.52;99041.59;5094313;28;20086;-49
2022/12/05 10:10:18;;;;;;;19.75;13.38;;;;;;;10.41;69.76;99047.72;5093023;28;20032;-49
2022/12/05 10:12:56;;;;;;;18.50;12.32;;;;;;;10.90;67.13;99038.94;5094349;28;20065;-48
2022/12/05 10:15:31;;;;;;;16.25;12.88;;;;;;;11.15;67.30;99041.94;5092907;28;20515;-48
2022/12/05 10:18:01;;;;;;;15.40;11.77;;;;;;;11.35;67.13;99037.56;5093900;28;20021;-49
2022/12/05 10:20:40;;;;;;;15.93;12.55;;;;;;;11.77;66.63;99025.16;5092275;28;20064;-49
2022/12/05 10:23:42;;;;;;;18.35;12.13;;;;;;;12.29;65.84;99014.88;5094119;28;20054;-49
2022/12/05 10:26:12;;;;;;;13.40;12.00;;;;;;;13.18;63.61;99016.13;5091821;28;20051;-49
2022/12/05 10:29:00;;;;;;;25.92;15.43;;;;;;;14.65;63.81;99014.34;5093928;28;20407;-49
2022/12/05 10:31:31;;;;;;;15.35;12.27;;;;;;;15.86;59.38;99003.94;5093875;28;20027;-47
2022/12/05 10:34:09;;;;;;;16.90;12.13;;;;;;;15.98;57.30;99002.94;5093956;28;20036;-47
2022/12/05 10:36:35;;;;;;;13.43;10.55;;;;;;;15.52;56.16;99000.94;5094120;28;20386;-47
2022/12/05 10:39:00;;;;;;;20.33;11.02;;;;;;;14.74;55.50;99010.41;5093747;28;20020;-47
2022/12/05 10:41:27;;;;;;;11.73;9.88;;;;;;;14.11;56.20;99025.34;5093758;28;20052;-47
2022/12/05 10:43:54;;;;;;;11.88;10.00;;;;;;;13.73;57.05;99023.56;5092274;28;20151;-47
2022/12/05 10:46:20;;;;;;;10.68;9.57;;;;;;;13.08;56.54;99022.81;5092260;28;20035;-47
2022/12/05 10:48:46;;;;;;;12.70;9.00;;;;;;;12.40;58.46;99029.25;5093573;28;20012;-47
2022/12/05 10:51:19;;;;;;;11.68;8.52;;;;;;;11.73;59.35;99029.19;5093727;28;20031;-47
2022/12/05 10:53:48;;;;;;;15.07;9.32;;;;;;;11.48;60.89;99035.97;5092202;28;20035;-48
2022/12/05 10:56:43;;;;;;;15.82;9.77;;;;;;;11.34;61.79;99038.56;5093429;28;20020;-49
2022/12/05 10:59:13;;;;;;;12.15;9.70;;;;;;;11.77;62.05;99019.88;5093461;28;20067;-49
2022/12/05 11:01:45;;;;;;;12.27;8.00;;;;;;;13.37;60.18;99017.06;5093571;28;20012;-49
2022/12/05 11:04:29;;;;;;;11.05;7.82;;;;;;;15.48;57.72;99000.56;5091976;28;20379;-48
2022/12/05 11:07:40;;;;;;;28.90;17.55;;;;;;;17.50;53.53;98999.53;5093244;28;20394;-47
2022/12/05 11:10:31;;;;;;;8.80;7.88;;;;;;;17.71;49.07;98996.22;5083649;28;20039;-47
2022/12/05 11:12:58;;;;;;;13.23;9.90;;;;;;;17.57;47.98;99005.50;5093090;28;20056;-47
2022/12/05 11:15:27;;;;;;;44.92;9.88;;;;;;;17.22;47.74;99006.44;5092000;28;20517;-47
2022/12/05 11:17:55;;;;;;;47.95;11.45;;;;;;;16.75;47.65;99003.88;5092823;28;20016;-47
2022/12/05 11:20:20;;;;;;;77.50;14.85;;;;;;;16.36;47.44;98996.41;5093245;28;20397;-47
2022/12/05 11:22:49;;;;;;;60.83;13.32;;;;;;;16.21;47.36;98993.41;5092843;28;20028;-47
2022/12/05 11:25:27;;;;;;;39.08;11.25;;;;;;;17.03;47.76;98987.25;5092783;28;20505;-47
2022/12/05 11:27:56;;;;;;;33.08;11.25;;;;;;;18.09;46.36;98992.09;5092759;28;20051;-47
2022/12/05 11:30:26;;;;;;;54.95;25.15;;;;;;;18.16;44.45;98982.09;5092648;28;20035;-47
2022/12/05 11:33:20;;;;;;;156.57;67.80;;;;;;;18.30;43.82;98987.06;5092179;28;20032;-47
2022/12/05 11:35:49;;;;;;;126.82;67.80;;;;;;;18.14;43.10;98994.81;5092707;28;20500;-47
2022/12/05 11:38:18;;;;;;;70.63;34.35;;;;;;;17.97;44.45;98986.06;5091306;28;20515;-47
2022/12/05 11:40:53;;;;;;;41.78;18.80;;;;;;;18.22;43.85;98977.66;5108250;28;20081;-47
2022/12/05 11:43:39;;;;;;;;;;;;;;;18.56;46.26;98981.06;5093311;28;20081;-47
2022/12/05 11:46:29;;;;;;;18.30;14.55;;;;;;;18.92;43.67;98978.91;5092506;28;19916;-47